createdAt,value
2019-05-18T00:02:01.690Z,75.40
2019-05-18T00:04:38.542Z,75.40
2019-05-18T00:07:10.509Z,75.50
2019-05-18T00:09:43.746Z,74.90
2019-05-18T00:12:22.443Z,75.70
2019-05-18T00:17:25.309Z,75.40
2019-05-18T00:19:53.894Z,78.40
2019-05-18T00:22:23.624Z,76.70
2019-05-18T00:24:53.265Z,76.30
2019-05-18T00:27:23.142Z,83.40
2019-05-18T00:29:52.575Z,78.20
2019-05-18T00:32:23.387Z,76.60
2019-05-18T00:34:58.780Z,76.40
2019-05-18T00:37:28.144Z,75.90
2019-05-18T00:39:57.847Z,76.40
2019-05-18T00:42:29.834Z,76.10
2019-05-18T00:44:59.282Z,76.20
2019-05-18T00:47:40.797Z,76.20
2019-05-18T00:50:05.518Z,76.40
2019-05-18T00:52:35.308Z,76.70
2019-05-18T00:55:04.979Z,76.20
2019-05-18T00:57:34.673Z,76.40
2019-05-18T01:00:04.768Z,76.30
2019-05-18T01:02:34.840Z,76.20
2019-05-18T01:05:04.474Z,76.00
2019-05-18T01:07:34.386Z,76.30
2019-05-18T01:10:06.630Z,76.50
2019-05-18T01:12:35.933Z,76.20
2019-05-18T01:15:06.391Z,76.50
2019-05-18T01:17:35.930Z,76.50
2019-05-18T01:20:05.411Z,76.60
2019-05-18T01:22:35.422Z,76.80
2019-05-18T01:25:04.918Z,76.80
2019-05-18T01:27:34.424Z,76.60
2019-05-18T01:30:04.538Z,77.00
2019-05-18T01:32:43.990Z,77.20
2019-05-18T01:35:13.651Z,76.80
2019-05-18T01:37:42.850Z,77.00
2019-05-18T01:40:13.162Z,76.60
2019-05-18T01:42:42.666Z,76.80
2019-05-18T01:45:16.948Z,77.20
2019-05-18T01:47:43.641Z,78.00
2019-05-18T01:50:14.056Z,77.40
2019-05-18T01:52:43.609Z,77.40
2019-05-18T01:55:13.178Z,77.50
2019-05-18T01:57:42.350Z,77.50
2019-05-18T02:00:13.027Z,77.60
2019-05-18T02:02:42.278Z,77.50
2019-05-18T02:05:11.627Z,77.50
2019-05-18T02:07:40.919Z,77.40
2019-05-18T02:10:10.400Z,77.10
2019-05-18T02:12:40.329Z,77.30
2019-05-18T02:15:11.990Z,77.60
2019-05-18T02:17:41.206Z,78.20
2019-05-18T02:20:16.920Z,78.00
2019-05-18T02:22:46.741Z,80.50
2019-05-18T02:25:16.070Z,82.50
2019-05-18T02:27:45.919Z,80.20
2019-05-18T02:30:17.491Z,81.10
2019-05-18T02:32:47.079Z,78.50
2019-05-18T02:35:16.633Z,80.60
2019-05-18T02:37:45.935Z,81.50
2019-05-18T02:40:30.686Z,81.40
2019-05-18T02:42:59.942Z,81.20
2019-05-18T02:45:29.619Z,84.30
2019-05-18T02:48:02.132Z,81.00
2019-05-18T02:50:31.400Z,80.40
2019-05-18T02:53:00.670Z,86.70
2019-05-18T02:55:41.090Z,90.30
2019-05-18T02:58:10.920Z,85.40
2019-05-18T03:00:40.516Z,88.20
2019-05-18T03:03:10.311Z,90.80
2019-05-18T03:05:40.035Z,88.10
2019-05-18T03:08:09.289Z,85.30
2019-05-18T03:10:38.826Z,93.50
2019-05-18T03:13:09.030Z,93.20
2019-05-18T03:15:38.547Z,96.50
2019-05-18T03:18:07.746Z,96.80
2019-05-18T03:20:37.272Z,96.80
2019-05-18T03:23:06.566Z,97.70
2019-05-18T03:25:38.138Z,98.20
2019-05-18T03:28:07.392Z,97.90
2019-05-18T03:30:36.648Z,98.40
2019-05-18T03:33:05.912Z,99.30
2019-05-18T03:35:35.519Z,99.90
2019-05-18T03:38:05.807Z,99.90
2019-05-18T03:40:35.019Z,99.90
2019-05-18T03:43:04.491Z,99.90
2019-05-18T03:45:33.705Z,99.30
2019-05-18T03:48:03.052Z,98.40
2019-05-18T03:50:32.291Z,97.60
2019-05-18T03:53:02.173Z,97.20
2019-05-18T03:55:31.718Z,95.50
2019-05-18T03:58:01.314Z,96.80
2019-05-18T04:00:30.599Z,92.70
2019-05-18T04:03:00.880Z,95.90
2019-05-18T04:05:30.403Z,97.60
2019-05-18T04:08:00.276Z,98.50
2019-05-18T04:10:29.899Z,96.60
2019-05-18T04:12:59.964Z,98.40
2019-05-18T04:15:29.533Z,99.30
2019-05-18T04:18:10.934Z,96.50
2019-05-18T04:20:40.152Z,91.80
2019-05-18T04:23:09.966Z,98.80
2019-05-18T04:25:43.553Z,95.70
2019-05-18T04:28:10.329Z,97.50
2019-05-18T04:30:40.244Z,96.60
2019-05-18T04:33:09.492Z,98.50
2019-05-18T04:35:39.597Z,97.70
2019-05-18T04:38:09.395Z,97.40
2019-05-18T04:40:39.201Z,96.90
2019-05-18T04:43:08.706Z,99.30
2019-05-18T04:45:38.011Z,96.00
2019-05-18T04:48:07.651Z,96.00
2019-05-18T04:50:37.256Z,95.50
2019-05-18T04:53:06.577Z,95.00
2019-05-18T04:55:36.265Z,93.20
2019-05-18T04:58:05.686Z,94.80
2019-05-18T05:00:35.584Z,92.90
2019-05-18T05:03:04.887Z,96.20
2019-05-18T05:05:34.423Z,95.50
2019-05-18T05:08:04.717Z,96.40
2019-05-18T05:10:34.622Z,96.60
2019-05-18T05:13:04.182Z,96.20
2019-05-18T05:15:33.798Z,96.30
2019-05-18T05:18:03.845Z,96.10
2019-05-18T05:20:33.082Z,94.90
2019-05-18T05:23:02.570Z,95.00
2019-05-18T05:25:37.717Z,94.80
2019-05-18T05:28:06.918Z,94.30
2019-05-18T05:30:42.562Z,93.10
2019-05-18T05:33:12.091Z,92.10
2019-05-18T05:35:41.691Z,92.30
2019-05-18T05:38:14.546Z,89.50
2019-05-18T05:40:44.130Z,92.30
2019-05-18T05:43:13.599Z,89.80
2019-05-18T05:45:43.322Z,93.50
2019-05-18T05:48:12.595Z,90.30
2019-05-18T05:50:42.146Z,91.40
2019-05-18T05:53:11.489Z,86.90
2019-05-18T05:55:41.342Z,85.50
2019-05-18T05:58:10.547Z,84.80
2019-05-18T06:00:39.915Z,84.30
2019-05-18T06:03:19.558Z,85.20
2019-05-18T06:05:50.889Z,87.40
2019-05-18T06:08:20.604Z,82.90
2019-05-18T06:10:49.860Z,81.20
2019-05-18T06:13:19.481Z,80.00
2019-05-18T06:15:48.694Z,83.00
2019-05-18T06:18:18.287Z,78.10
2019-05-18T06:20:51.591Z,81.10
2019-05-18T06:23:18.674Z,79.40
2019-05-18T06:25:48.289Z,79.90
2019-05-18T06:28:42.076Z,79.50
2019-05-18T06:31:12.073Z,74.50
2019-05-18T06:33:41.427Z,77.20
2019-05-18T06:36:21.754Z,73.40
2019-05-18T06:38:53.156Z,73.70
2019-05-18T06:41:23.414Z,74.70
2019-05-18T06:43:53.412Z,74.40
2019-05-18T06:46:22.848Z,74.80
2019-05-18T06:48:52.084Z,76.60
2019-05-18T06:51:21.227Z,74.00
2019-05-18T06:53:51.384Z,71.30
2019-05-18T06:56:20.668Z,71.30
2019-05-18T06:58:51.305Z,69.80
2019-05-18T07:01:21.022Z,74.80
2019-05-18T07:03:50.649Z,68.30
2019-05-18T07:06:23.291Z,70.90
2019-05-18T07:08:52.648Z,65.80
2019-05-18T07:11:22.292Z,67.20
2019-05-18T07:14:04.051Z,74.70
2019-05-18T07:16:35.495Z,71.60
2019-05-18T07:19:04.793Z,67.40
2019-05-18T07:21:34.079Z,66.00
2019-05-18T07:24:04.462Z,66.90
2019-05-18T07:26:34.026Z,66.30
2019-05-18T07:29:05.654Z,66.50
2019-05-18T07:31:42.336Z,65.90
2019-05-18T07:34:12.292Z,63.20
2019-05-18T07:36:49.332Z,65.30
2019-05-18T07:39:18.827Z,66.90
2019-05-18T07:41:49.054Z,63.40
2019-05-18T07:44:37.613Z,62.10
2019-05-18T07:47:07.456Z,62.10
2019-05-18T07:49:36.698Z,61.10
2019-05-18T07:52:05.905Z,62.60
2019-05-18T07:54:35.226Z,67.60
2019-05-18T07:57:04.875Z,64.00
2019-05-18T07:59:34.885Z,63.30
2019-05-18T08:02:04.631Z,67.20
2019-05-18T08:04:34.621Z,68.10
2019-05-18T08:07:04.293Z,63.20
2019-05-18T08:09:33.894Z,61.70
2019-05-18T08:12:03.561Z,61.00
2019-05-18T08:14:33.059Z,59.50
2019-05-18T08:17:02.347Z,59.50
2019-05-18T08:19:32.459Z,58.20
2019-05-18T08:22:01.724Z,59.50
2019-05-18T08:24:31.269Z,59.20
2019-05-18T08:27:02.351Z,58.50
2019-05-18T08:29:32.002Z,56.60
2019-05-18T08:32:07.180Z,58.20
2019-05-18T08:34:37.023Z,57.80
2019-05-18T08:37:06.274Z,58.10
2019-05-18T08:39:36.174Z,62.70
2019-05-18T08:42:05.680Z,56.60
2019-05-18T08:44:35.282Z,56.80
2019-05-18T08:47:04.540Z,56.40
2019-05-18T08:49:33.767Z,55.10
2019-05-18T08:52:08.184Z,57.20
2019-05-18T08:54:34.455Z,56.30
2019-05-18T08:57:04.103Z,59.50
2019-05-18T08:59:42.708Z,60.20
2019-05-18T09:02:12.064Z,56.50
2019-05-18T09:04:42.726Z,54.10
2019-05-18T09:07:12.297Z,55.10
2019-05-18T09:09:42.079Z,54.30
2019-05-18T09:12:11.651Z,54.40
2019-05-18T09:14:41.452Z,52.60
2019-05-18T09:17:10.651Z,53.60
2019-05-18T09:19:39.889Z,50.80
2019-05-18T09:22:22.499Z,54.90
2019-05-18T09:24:40.326Z,53.90
2019-05-18T09:27:14.679Z,54.00
2019-05-18T09:29:43.943Z,53.90
2019-05-18T09:32:13.134Z,51.50
2019-05-18T09:34:42.666Z,53.70
2019-05-18T09:37:12.979Z,52.40
2019-05-18T09:39:48.753Z,54.70
2019-05-18T09:42:18.009Z,53.10
2019-05-18T09:44:47.581Z,52.30
2019-05-18T09:47:16.767Z,52.00
2019-05-18T09:49:47.893Z,49.80
2019-05-18T09:52:17.227Z,51.90
2019-05-18T09:54:46.776Z,49.10
2019-05-18T09:57:16.574Z,52.00
2019-05-18T09:59:45.921Z,49.40
2019-05-18T10:02:15.226Z,48.60
2019-05-18T10:04:51.633Z,50.00
2019-05-18T10:07:20.882Z,48.60
2019-05-18T10:09:52.017Z,50.20
2019-05-18T10:12:24.347Z,51.00
2019-05-18T10:15:11.844Z,51.30
2019-05-18T10:17:40.991Z,48.30
2019-05-18T10:20:10.467Z,50.40
2019-05-18T10:22:53.304Z,50.80
2019-05-18T10:25:12.028Z,51.60
2019-05-18T10:27:41.228Z,50.70
2019-05-18T10:30:11.022Z,48.20
2019-05-18T10:32:40.394Z,49.50
2019-05-18T10:35:10.002Z,46.00
2019-05-18T10:37:39.798Z,46.90
2019-05-18T10:40:10.523Z,49.90
2019-05-18T10:42:40.352Z,47.30
2019-05-18T10:45:10.857Z,49.70
2019-05-18T10:47:47.088Z,50.50
2019-05-18T10:50:16.297Z,48.60
2019-05-18T10:52:45.587Z,51.30
2019-05-18T10:55:14.998Z,49.30
2019-05-18T10:57:44.432Z,48.20
2019-05-18T11:00:14.456Z,44.80
2019-05-18T11:02:44.460Z,49.50
2019-05-18T11:05:14.016Z,45.70
2019-05-18T11:07:43.578Z,46.90
2019-05-18T11:10:13.299Z,48.40
2019-05-18T11:12:42.550Z,46.10
2019-05-18T11:15:12.447Z,48.10
2019-05-18T11:17:41.813Z,47.90
2019-05-18T11:20:18.974Z,46.40
2019-05-18T11:22:48.543Z,47.00
2019-05-18T11:25:18.738Z,47.90
2019-05-18T11:27:48.527Z,48.40
2019-05-18T11:30:18.166Z,44.10
2019-05-18T11:32:47.307Z,47.50
2019-05-18T11:35:17.226Z,47.10
2019-05-18T11:37:46.539Z,47.30
2019-05-18T11:40:15.967Z,46.30
2019-05-18T11:42:45.554Z,45.00
2019-05-18T11:45:16.427Z,45.60
2019-05-18T11:47:45.749Z,45.10
2019-05-18T11:50:15.623Z,46.60
2019-05-18T11:52:44.822Z,45.70
2019-05-18T11:55:14.706Z,48.00
2019-05-18T11:57:44.548Z,46.10
2019-05-18T12:00:15.793Z,46.00
2019-05-18T12:02:45.013Z,44.70
2019-05-18T12:05:16.495Z,43.90
2019-05-18T12:07:46.347Z,44.20
2019-05-18T12:10:18.334Z,46.60
2019-05-18T12:12:54.659Z,47.50
2019-05-18T12:15:24.797Z,46.10
2019-05-18T12:17:54.712Z,45.30
2019-05-18T12:20:24.012Z,44.40
2019-05-18T12:22:53.770Z,44.00
2019-05-18T12:25:23.338Z,46.60
2019-05-18T12:27:53.053Z,47.00
2019-05-18T12:30:22.703Z,46.50
2019-05-18T12:32:52.222Z,43.30
2019-05-18T12:35:22.034Z,45.60
2019-05-18T12:37:51.765Z,44.80
2019-05-18T12:40:22.815Z,44.40
2019-05-18T12:42:55.964Z,44.90
2019-05-18T12:45:25.759Z,44.50
2019-05-18T12:47:55.013Z,44.00
2019-05-18T12:50:24.965Z,43.40
2019-05-18T12:52:54.821Z,48.10
2019-05-18T12:55:24.767Z,47.50
2019-05-18T12:57:54.089Z,48.10
2019-05-18T13:00:23.669Z,46.70
2019-05-18T13:02:53.262Z,46.00
2019-05-18T13:05:22.885Z,43.10
2019-05-18T13:07:52.410Z,47.10
2019-05-18T13:10:22.195Z,45.70
2019-05-18T13:12:51.714Z,45.60
2019-05-18T13:15:21.441Z,46.50
2019-05-18T13:17:50.767Z,43.50
2019-05-18T13:20:20.451Z,50.20
2019-05-18T13:22:49.692Z,48.70
2019-05-18T13:25:19.707Z,46.70
2019-05-18T13:27:51.478Z,45.50
2019-05-18T13:30:21.076Z,46.90
2019-05-18T13:32:50.830Z,45.40
2019-05-18T13:35:21.519Z,45.40
2019-05-18T13:37:59.755Z,45.00
2019-05-18T13:40:29.255Z,44.50
2019-05-18T13:42:58.760Z,42.70
2019-05-18T13:45:28.078Z,45.40
2019-05-18T13:47:57.363Z,44.30
2019-05-18T13:50:27.090Z,44.90
2019-05-18T13:52:57.166Z,44.80
2019-05-18T13:55:26.518Z,45.00
2019-05-18T13:57:56.472Z,47.50
2019-05-18T14:00:25.674Z,45.90
2019-05-18T14:02:55.295Z,45.10
2019-05-18T14:05:24.519Z,45.00
2019-05-18T14:07:54.347Z,45.40
2019-05-18T14:10:24.150Z,45.60
2019-05-18T14:12:53.687Z,45.60
2019-05-18T14:15:23.374Z,42.10
2019-05-18T14:17:52.852Z,45.70
2019-05-18T14:20:22.385Z,48.20
2019-05-18T14:22:51.658Z,47.70
2019-05-18T14:25:21.091Z,47.40
2019-05-18T14:27:51.845Z,46.60
2019-05-18T14:30:24.383Z,46.90
2019-05-18T14:32:53.630Z,46.70
2019-05-18T14:35:23.292Z,46.00
2019-05-18T14:37:52.772Z,47.90
2019-05-18T14:40:22.093Z,44.40
2019-05-18T14:42:53.402Z,43.70
2019-05-18T14:45:23.018Z,45.50
2019-05-18T14:47:52.662Z,45.50
2019-05-18T14:50:23.999Z,45.60
2019-05-18T14:52:53.297Z,46.00
2019-05-18T14:55:33.195Z,47.40
2019-05-18T14:57:53.530Z,46.10
2019-05-18T15:00:22.833Z,46.00
2019-05-18T15:02:53.486Z,46.20
2019-05-18T15:05:23.057Z,46.50
2019-05-18T15:07:54.465Z,45.30
2019-05-18T15:10:23.706Z,51.40
2019-05-18T15:12:52.988Z,48.30
2019-05-18T15:15:22.436Z,46.70
2019-05-18T15:17:52.049Z,46.10
2019-05-18T15:20:22.796Z,46.10
2019-05-18T15:22:52.474Z,45.60
2019-05-18T15:25:21.771Z,45.70
2019-05-18T15:27:51.587Z,42.70
2019-05-18T15:30:21.221Z,48.40
2019-05-18T15:32:51.591Z,46.10
2019-05-18T15:35:21.222Z,44.90
2019-05-18T15:37:57.637Z,44.00
2019-05-18T15:40:28.166Z,45.70
2019-05-18T15:42:59.368Z,45.30
2019-05-18T15:45:28.597Z,42.60
2019-05-18T15:47:57.880Z,46.80
2019-05-18T15:50:27.502Z,44.60
2019-05-18T15:52:57.063Z,43.90
2019-05-18T15:55:26.393Z,47.80
2019-05-18T15:57:55.798Z,45.40
2019-05-18T16:00:25.296Z,44.50
2019-05-18T16:02:58.973Z,50.80
2019-05-18T16:05:29.478Z,47.50
2019-05-18T16:07:58.791Z,44.20
2019-05-18T16:10:39.428Z,41.90
2019-05-18T16:13:09.650Z,47.30
2019-05-18T16:15:39.051Z,44.70
2019-05-18T16:18:08.482Z,46.00
2019-05-18T16:20:38.122Z,44.30
2019-05-18T16:23:07.679Z,44.20
2019-05-18T16:25:37.163Z,43.00
2019-05-18T16:28:06.797Z,46.60
2019-05-18T16:30:36.003Z,44.30
2019-05-18T16:33:05.671Z,42.70
2019-05-18T16:35:35.396Z,43.70
2019-05-18T16:38:04.686Z,43.30
2019-05-18T16:40:34.251Z,43.50
2019-05-18T16:43:03.901Z,43.20
2019-05-18T16:45:33.415Z,43.00
2019-05-18T16:48:03.750Z,43.00
2019-05-18T16:50:33.086Z,42.70
2019-05-18T16:53:02.896Z,42.80
2019-05-18T16:55:32.551Z,42.90
2019-05-18T16:58:01.965Z,43.10
2019-05-18T17:00:31.619Z,42.90
2019-05-18T17:03:01.742Z,42.90
2019-05-18T17:05:31.027Z,42.70
2019-05-18T17:08:00.791Z,42.80
2019-05-18T17:10:30.086Z,42.40
2019-05-18T17:12:59.693Z,42.80
2019-05-18T17:15:29.113Z,43.00
2019-05-18T17:17:58.438Z,42.90
2019-05-18T17:20:27.667Z,44.00
2019-05-18T17:22:57.195Z,43.50
2019-05-18T17:28:55.037Z,46.20
2019-05-18T17:31:24.845Z,44.10
2019-05-18T17:33:54.214Z,45.80
2019-05-18T17:36:23.536Z,44.40
2019-05-18T17:38:53.049Z,45.60
2019-05-18T17:41:22.316Z,43.90
2019-05-18T17:43:51.899Z,43.00
2019-05-18T17:46:27.503Z,46.10
2019-05-18T17:48:57.129Z,46.00
2019-05-18T17:51:26.754Z,48.20
2019-05-18T17:53:56.490Z,48.50
2019-05-18T17:56:25.770Z,50.70
2019-05-18T17:58:55.399Z,50.30
2019-05-18T18:01:25.836Z,55.40
2019-05-18T18:03:56.214Z,52.40
2019-05-18T18:06:31.780Z,49.90
2019-05-18T18:09:01.740Z,53.00
2019-05-18T18:11:51.050Z,54.70
2019-05-18T18:14:20.832Z,56.30
2019-05-18T18:16:50.087Z,51.50
2019-05-18T18:19:20.008Z,56.10
2019-05-18T18:21:51.938Z,56.00
2019-05-18T18:24:24.542Z,55.90
2019-05-18T18:26:53.951Z,54.40
2019-05-18T18:29:23.167Z,54.50
2019-05-18T18:31:52.473Z,51.90
2019-05-18T18:34:22.171Z,51.90
2019-05-18T18:36:55.794Z,58.30
2019-05-18T18:39:25.482Z,52.80
2019-05-18T18:41:54.855Z,53.30
2019-05-18T18:44:24.802Z,55.00
2019-05-18T18:46:54.703Z,54.50
2019-05-18T18:49:24.408Z,53.30
2019-05-18T18:51:54.302Z,53.30
2019-05-18T18:54:24.117Z,56.40
2019-05-18T18:56:53.575Z,55.70
2019-05-18T18:59:29.256Z,55.00
2019-05-18T19:01:58.746Z,55.20
2019-05-18T19:04:28.244Z,53.90
2019-05-18T19:06:57.831Z,54.70
2019-05-18T19:09:27.154Z,53.80
2019-05-18T19:11:56.514Z,53.80
2019-05-18T19:14:26.129Z,53.60
2019-05-18T19:16:55.706Z,53.80
2019-05-18T19:19:24.927Z,54.10
2019-05-18T19:21:54.191Z,54.30
2019-05-18T19:24:23.442Z,54.70
2019-05-18T19:26:55.145Z,54.70
2019-05-18T19:29:24.545Z,54.80
2019-05-18T19:32:03.030Z,55.00
2019-05-18T19:34:32.279Z,55.30
2019-05-18T19:37:02.195Z,55.70
2019-05-18T19:39:31.474Z,55.90
2019-05-18T19:42:01.435Z,56.50
2019-05-18T19:44:30.776Z,56.70
2019-05-18T19:47:00.397Z,57.30
2019-05-18T19:49:30.365Z,57.40
2019-05-18T19:51:59.779Z,58.00
2019-05-18T19:54:29.254Z,58.00
2019-05-18T19:56:58.946Z,58.00
2019-05-18T19:59:28.685Z,58.20
2019-05-18T20:01:58.347Z,58.60
2019-05-18T20:04:27.694Z,58.40
2019-05-18T20:06:56.923Z,59.00
2019-05-18T20:09:26.422Z,59.50
2019-05-18T20:11:55.917Z,59.60
2019-05-18T20:14:25.626Z,59.70
2019-05-18T20:16:54.904Z,59.90
2019-05-18T20:19:38.307Z,60.00
2019-05-18T20:21:56.350Z,60.40
2019-05-18T20:24:25.664Z,60.70
2019-05-18T20:26:55.194Z,60.70
2019-05-18T20:29:25.081Z,61.10
2019-05-18T20:31:54.328Z,61.30
2019-05-18T20:34:26.105Z,61.30
2019-05-18T20:36:55.384Z,61.60
2019-05-18T20:39:24.780Z,61.90
2019-05-18T20:41:54.580Z,61.70
2019-05-18T20:44:23.814Z,61.90
2019-05-18T20:46:56.622Z,62.20
2019-05-18T20:49:28.926Z,62.50
2019-05-18T20:51:59.312Z,62.40
2019-05-18T20:54:28.602Z,62.60
2019-05-18T20:57:01.674Z,62.60
2019-05-18T20:59:31.334Z,62.70
2019-05-18T21:02:00.641Z,63.10
2019-05-18T21:04:29.906Z,63.20
2019-05-18T21:06:59.518Z,63.40
2019-05-18T21:09:28.857Z,63.40
2019-05-18T21:11:59.978Z,63.20
2019-05-18T21:14:29.350Z,63.40
2019-05-18T21:17:00.098Z,63.80
2019-05-18T21:19:29.899Z,64.30
2019-05-18T21:21:59.843Z,63.90
2019-05-18T21:24:29.755Z,64.40
2019-05-18T21:27:01.111Z,64.30
2019-05-18T21:30:25.044Z,64.60
2019-05-18T21:33:12.328Z,64.50
2019-05-18T21:35:42.006Z,64.30
2019-05-18T21:38:17.242Z,64.90
2019-05-18T21:40:59.546Z,65.10
2019-05-18T21:43:28.853Z,65.00
2019-05-18T21:46:04.542Z,64.90
2019-05-18T21:48:34.252Z,65.50
2019-05-18T21:51:04.788Z,64.90
2019-05-18T21:53:36.894Z,65.10
2019-05-18T21:56:09.178Z,65.50
2019-05-18T21:58:39.102Z,65.90
2019-05-18T22:01:08.780Z,65.90
2019-05-18T22:03:37.955Z,65.70
2019-05-18T22:06:07.309Z,66.20
2019-05-18T22:08:37.651Z,66.00
2019-05-18T22:11:07.531Z,66.00
2019-05-18T22:13:37.049Z,66.10
2019-05-18T22:16:06.342Z,65.70
2019-05-18T22:18:35.934Z,66.30
2019-05-18T22:21:05.454Z,66.20
2019-05-18T22:23:35.062Z,66.90
2019-05-18T22:26:05.002Z,67.00
2019-05-18T22:28:34.200Z,67.00
2019-05-18T22:31:03.536Z,66.50
2019-05-18T22:33:32.805Z,67.20
2019-05-18T22:36:02.581Z,67.70
2019-05-18T22:38:33.836Z,67.00
2019-05-18T22:41:03.097Z,70.60
2019-05-18T22:43:32.728Z,68.20
2019-05-18T22:46:02.913Z,67.80
2019-05-18T22:48:40.895Z,67.40
2019-05-18T22:51:03.538Z,67.20
2019-05-18T22:53:46.492Z,67.30
2019-05-18T22:56:15.045Z,67.90
2019-05-18T22:58:44.929Z,68.20
2019-05-18T23:01:14.227Z,67.70
2019-05-18T23:03:43.459Z,67.80
2019-05-18T23:06:12.732Z,67.50
2019-05-18T23:08:42.311Z,67.90
2019-05-18T23:11:11.607Z,67.80
2019-05-18T23:13:40.868Z,67.60
2019-05-18T23:16:10.409Z,67.40
2019-05-18T23:18:39.714Z,67.20
2019-05-18T23:21:09.674Z,68.10
2019-05-18T23:23:39.225Z,68.90
2019-05-18T23:26:11.513Z,68.90
2019-05-18T23:28:41.790Z,68.30
2019-05-18T23:31:11.008Z,68.70
2019-05-18T23:33:40.276Z,68.60
2019-05-18T23:36:09.530Z,68.80
2019-05-18T23:38:39.270Z,68.70
2019-05-18T23:41:08.827Z,68.60
2019-05-18T23:43:39.003Z,68.50
2019-05-18T23:46:08.288Z,68.70
2019-05-18T23:48:37.954Z,69.00
2019-05-18T23:51:07.214Z,68.50
2019-05-18T23:53:36.850Z,68.90
2019-05-18T23:56:06.145Z,68.50
2019-05-18T23:58:35.571Z,69.10
